Terminal Aerodrome Forecast
Issued by NWS Mt. Holly, NJ

Home | Current Version | Previous Version | Text Only | Print | Product List | Glossary On
Versions: 1 2 3 4 5 6 7 8 9 10 11 12 13 14 15 16 17 18 19 20 21 22 23 24 25 26 27 28 29 30
000
FTUS41 KPHI 191134 CCA
TAFPHL
TAF COR
KPHL 191134Z 1912/2018 14005KT P6SM BKN180
     FM191300 16005KT P6SM OVC035
      TEMPO 1914/1917 -SHRA
     FM191900 19008G16KT P6SM OVC025
     FM192100 19009G16KT 6SM -SHRA OVC015
     FM192300 19008KT 5SM -SHRA OVC007
     FM200200 19006KT 6SM BR OVC007
     FM200600 21005KT 1SM -DZ BR OVC005 WS020/23045KT
     FM201400 23008G18KT P6SM OVC015=

USA.gov is the U.S. government's official web portal to all federal, state and local government web resources and services.